WEATHER DATA

YESTERDAY
Time Temp. Dewp. Hum. Bar.
00:08 18.7 12.9 69 1016.8
00:18 18.5 12.7 69 1016.8
00:28 18.3 12.7 70 1016.8
00:38 18.1 12.5 70 1016.9
00:48 17.8 12.5 71 1016.9
00:58 17.7 12.4 71 1016.9
01:08 17.5 12.4 72 1016.9
01:18 17.3 12.2 72 1016.8
01:29 17.1 12.2 73 1016.8
01:38 16.9 12 73 1016.8
01:48 16.8 11.9 73 1016.7
01:59 16.6 12 74 1016.4
02:09 16.4 11.8 74 1016.3
02:18 16.3 11.9 75 1016.3
02:28 16.2 11.6 74 1016.4
02:39 16 11.6 75 1016.2
02:48 15.8 11.4 75 1016.2
02:58 15.6 11.2 75 1016.2
03:09 15.5 11.1 75 1016.2
03:19 15.3 10.9 75 1016.2
03:28 15.2 11 76 1016.3
03:38 15.1 10.9 76 1016.2
03:49 15 11 77 1016.1
03:59 14.8 10.6 76 1016.1
04:08 14.7 10.5 76 1016.2
04:19 14.5 10.3 76 1016.2
04:29 14.4 10.2 76 1016.1
04:39 14.2 10 76 1016
04:49 14.1 10.1 77 1015.9
04:59 14 10 77 1016
05:09 13.8 9.8 77 1016.1
05:19 13.7 9.7 77 1016.1
05:29 13.7 9.9 78 1016.1
05:39 13.6 9.8 78 1016.1
05:49 13.6 9.8 78 1016
05:59 13.5 9.7 78 1016
06:09 13.4 9.6 78 1016.2
06:20 13.4 9.6 78 1016.2
06:29 13.4 9.8 79 1016.2
06:39 13.4 9.8 79 1016.2
06:49 13.5 10.1 80 1016.2
07:00 13.6 10.4 81 1016.4
07:10 13.8 10.8 82 1016.2
07:19 14 11 82 1016.2
07:30 14.4 11.6 83 1016.2
07:40 14.7 11.8 83 1016.3
07:50 15 12.1 83 1016.2
07:59 15.4 12.5 83 1016.3
08:10 15.8 12.9 83 1016.3
08:20 16.2 13.3 83 1016.4
08:30 16.7 13.8 83 1016.4
08:40 17 13.9 82 1016.3
08:50 17.4 14.3 82 1016.3
09:00 17.9 14.6 81 1016.4
09:10 18.3 15 81 1016.3
09:20 18.8 15.5 81 1016.2
09:30 19.2 15.7 80 1016.2
09:40 19.7 16.2 80 1016
09:51 20.1 16.3 79 1016
10:01 20.5 16.5 78 1015.9
10:10 20.9 16.7 77 1015.8
10:20 21.3 16.9 76 1015.8
10:31 21.8 17.2 75 1015.6
10:41 22.1 16.8 72 1015.6
10:50 22.5 16.8 70 1015.6
11:01 23 17 69 1015.6
11:11 23.4 16.7 66 1015.3
11:21 23.8 16.6 64 1015.5
11:31 24.1 16.6 63 1015.3
11:41 24.4 16.7 62 1015.2
11:51 24.6 16.8 62 1015.4
12:01 24.8 16.8 61 1015.3
12:11 25 17.2 62 1015.3
12:21 25.2 17.1 61 1015.3
12:31 25.4 17.3 61 1015.1
12:41 25.6 17.3 60 1015.1
12:52 25.9 17.8 61 1014.9
13:01 26.1 17.7 60 1014.9
13:11 26.4 17.7 59 1015
13:22 26.7 18 59 1015
13:32 27 18 58 1014.7
13:41 27.2 17.9 57 1014.7
13:51 27.3 18 57 1014.6
14:02 27.4 18.1 57 1014.7
14:12 27.4 18.1 57 1014.7
14:21 27.5 18.2 57 1014.5
14:32 27.6 18 56 1014.4
14:42 27.9 18.6 57 1014.5
14:52 28.1 18.5 56 1014.3
15:02 28.3 18.4 55 1014.4
15:12 28.5 18.3 54 1014.3
15:22 28.8 18.3 53 1014.2
15:32 28.8 16.7 48 1014.2
15:42 28.7 16.6 48 1014.3
15:52 28.8 17 49 1014.2
16:02 28.8 17 49 1014.2
16:12 29 17.2 49 1014.2
16:22 29.2 17.1 48 1014.2
16:32 29.2 17.1 48 1014.1
16:42 29.2 17.4 49 1014.2
16:53 29.1 17.3 49 1014.2
17:02 29.1 17.6 50 1014
17:12 29.1 17.6 50 1013.9
17:23 29.2 17.7 50 1013.8
17:33 29.4 17.6 49 1013.6
17:43 29.7 17.5 48 1013.4
17:52 29.8 16.6 45 1013.3
18:03 29.8 16.6 45 1013.1
18:13 29.8 16.6 45 1013.1
18:23 29.6 16.8 46 1013
18:33 29.4 16.6 46 1013.1
18:43 29.1 16.6 47 1013.3
18:53 28.8 17 49 1013.1
19:03 28.9 17.1 49 1013.1
19:13 29.1 17.3 49 1013
19:23 29.3 17.2 48 1013
19:33 29.5 17.7 49 1013
19:43 29.6 17.1 47 1012.9
19:53 29.5 17.3 48 1012.9
20:03 29.2 17.4 49 1012.9
20:13 28.7 17.6 51 1012.8
20:24 28.2 17.7 53 1012.8
20:34 27.8 17.6 54 1012.9
20:43 27.4 17.6 55 1012.9
20:54 26.9 17.4 56 1012.9
21:04 26.4 17.2 57 1012.8
21:14 25.9 17 58 1012.8
21:23 25.4 16.8 59 1012.8
21:34 25 16.7 60 1012.8
21:44 24.7 16.7 61 1012.9
21:54 24.4 16.7 62 1012.8
22:04 24.1 16.6 63 1013
22:14 23.7 16.5 64 1012.8
22:24 23.4 16.2 64 1012.9
22:34 23 16.1 65 1012.8
22:44 22.7 16 66 1012.8
22:54 22.4 15.7 66 1012.8
23:04 22 15.6 67 1012.7
23:15 21.8 15.6 68 1012.8
23:24 21.5 15.4 68 1012.8
23:44 21 15.1 69 1012.7
23:55 20.8 15.1 70 1012.6

DAY STATISTIC

2019-06-18
TEMPERATURE
AVERAGE
22.0
HIGH
29.8
17:52
LOW
13.4
06:09
PRESSURE
AVERAGE
1014.9
HIGH
1016.9
00:38
LOW
1012.6
23:55
DEWPOINT
AVERAGE
14.9
HIGH
18.6
14:42
LOW
9.6
06:09
HUMIDITY
AVERAGE
66
HIGH
83
07:30
LOW
45
17:52
TEMPERATURE (°C)
LOW
13.4
HIGH
29.8
AVERAGE
22.0
PRESSURE (hpa)
LOW
1012.6
HIGH
1016.9
AVERAGE
1014.9
DEVICE